createdAt,value
2022-11-15T00:01:42.360Z,21.48
2022-11-15T00:04:12.892Z,22.27
2022-11-15T00:06:42.908Z,21.43
2022-11-15T00:09:11.744Z,22.05
2022-11-15T00:11:40.302Z,21.23
2022-11-15T00:14:08.977Z,21.13
2022-11-15T00:16:37.616Z,21.65
2022-11-15T00:19:06.254Z,21.50
2022-11-15T00:21:34.886Z,21.37
2022-11-15T00:24:05.239Z,22.23
2022-11-15T00:26:33.852Z,20.37
2022-11-15T00:29:02.480Z,19.98
2022-11-15T00:31:31.071Z,21.40
2022-11-15T00:33:59.650Z,21.65
2022-11-15T00:36:28.306Z,22.27
2022-11-15T00:38:56.984Z,22.53
2022-11-15T00:41:27.003Z,21.80
2022-11-15T00:43:55.792Z,20.48
2022-11-15T00:46:24.409Z,22.75
2022-11-15T00:48:53.058Z,23.35
2022-11-15T00:51:21.898Z,23.83
2022-11-15T00:53:50.574Z,22.50
2022-11-15T00:56:19.175Z,22.33
2022-11-15T00:58:49.345Z,21.03
2022-11-15T01:01:18.019Z,23.70
2022-11-15T01:03:46.679Z,22.40
2022-11-15T01:06:15.295Z,20.67
2022-11-15T01:08:44.015Z,23.13
2022-11-15T01:11:14.528Z,24.03
2022-11-15T01:13:43.213Z,24.95
2022-11-15T01:16:17.650Z,25.70
2022-11-15T01:18:47.316Z,25.27
2022-11-15T01:21:20.011Z,24.30
2022-11-15T01:23:48.565Z,26.02
2022-11-15T01:26:18.998Z,27.02
2022-11-15T01:28:47.633Z,28.15
2022-11-15T01:31:21.330Z,26.83
2022-11-15T01:33:51.163Z,26.85
2022-11-15T01:36:23.301Z,27.58
2022-11-15T01:38:56.394Z,27.97
2022-11-15T01:41:28.657Z,27.52
2022-11-15T01:43:59.886Z,26.83
2022-11-15T01:46:35.874Z,26.23
2022-11-15T01:49:15.304Z,25.15
2022-11-15T01:51:44.136Z,27.33
2022-11-15T01:54:19.505Z,28.20
2022-11-15T01:56:53.205Z,26.73
2022-11-15T01:59:23.462Z,27.27
2022-11-15T02:02:08.526Z,25.53
2022-11-15T02:04:42.403Z,27.70
2022-11-15T02:07:15.525Z,26.90
2022-11-15T02:09:46.306Z,31.17
2022-11-15T02:12:20.703Z,31.07
2022-11-15T02:14:54.608Z,30.63
2022-11-15T02:17:51.163Z,30.65
2022-11-15T02:21:03.348Z,30.77
2022-11-15T02:24:19.626Z,30.03
2022-11-15T02:27:45.378Z,30.67
2022-11-15T02:30:40.318Z,28.67
2022-11-15T02:33:29.291Z,32.22
2022-11-15T02:36:03.569Z,31.50
2022-11-15T02:38:42.610Z,30.40
2022-11-15T02:41:17.775Z,29.47
2022-11-15T02:43:58.256Z,29.90
2022-11-15T02:46:55.144Z,28.85
2022-11-15T02:49:26.300Z,30.15
2022-11-15T02:51:57.788Z,33.35
2022-11-15T02:54:30.780Z,32.00
2022-11-15T02:57:06.426Z,31.90
2022-11-15T03:00:07.682Z,32.42
2022-11-15T03:03:01.305Z,33.60
2022-11-15T03:05:37.834Z,35.30
2022-11-15T03:08:16.922Z,34.92
2022-11-15T03:11:00.163Z,36.20
2022-11-15T03:13:36.349Z,36.35
2022-11-15T03:16:11.492Z,38.40
2022-11-15T03:18:48.618Z,38.65
2022-11-15T03:21:21.083Z,36.05
2022-11-15T03:23:52.134Z,37.45
2022-11-15T03:26:25.794Z,36.90
2022-11-15T03:29:00.570Z,37.40
2022-11-15T03:31:51.739Z,42.08
2022-11-15T03:34:30.698Z,42.22
2022-11-15T03:37:00.026Z,43.15
2022-11-15T03:39:31.322Z,43.27
2022-11-15T03:42:21.103Z,44.08
2022-11-15T03:45:00.827Z,45.70
2022-11-15T03:47:36.769Z,47.90
2022-11-15T03:50:13.351Z,47.10
2022-11-15T03:52:44.494Z,46.73
2022-11-15T03:55:18.266Z,47.30
2022-11-15T03:57:47.114Z,45.38
2022-11-15T04:00:16.359Z,46.78
2022-11-15T04:02:44.925Z,46.67
2022-11-15T04:05:14.879Z,46.27
2022-11-15T04:07:43.436Z,49.83
2022-11-15T04:10:13.394Z,51.30
2022-11-15T04:12:47.399Z,50.33
2022-11-15T04:15:19.258Z,49.72
2022-11-15T04:17:51.046Z,50.25
2022-11-15T04:20:42.299Z,51.03
2022-11-15T04:23:32.249Z,48.07
2022-11-15T04:26:04.464Z,49.85
2022-11-15T04:28:33.165Z,47.80
2022-11-15T04:31:02.173Z,48.60
2022-11-15T04:33:31.185Z,48.45
2022-11-15T04:36:18.718Z,49.60
2022-11-15T04:38:47.304Z,47.33
2022-11-15T04:41:15.929Z,48.60
2022-11-15T04:43:44.520Z,49.40
2022-11-15T04:46:13.110Z,48.70
2022-11-15T04:48:41.741Z,53.78
2022-11-15T04:51:11.704Z,52.03
2022-11-15T04:53:40.362Z,49.35
2022-11-15T04:56:09.744Z,53.08
2022-11-15T04:58:38.338Z,52.67
2022-11-15T05:01:10.273Z,49.67
2022-11-15T05:03:53.080Z,51.08
2022-11-15T05:06:24.072Z,49.10
2022-11-15T05:08:52.861Z,51.13
2022-11-15T05:11:21.644Z,50.25
2022-11-15T05:13:50.526Z,50.17
2022-11-15T05:16:19.207Z,49.35
2022-11-15T05:18:47.885Z,48.28
2022-11-15T05:21:17.753Z,48.50
2022-11-15T05:23:48.135Z,48.75
2022-11-15T05:26:20.484Z,47.72
2022-11-15T05:28:49.172Z,47.73
2022-11-15T05:31:18.622Z,47.03
2022-11-15T05:33:47.633Z,47.45
2022-11-15T05:36:23.970Z,47.03
2022-11-15T05:38:54.247Z,47.40
2022-11-15T05:41:31.241Z,46.42
2022-11-15T05:44:02.814Z,45.92
2022-11-15T05:46:32.288Z,45.30
2022-11-15T05:49:01.841Z,50.22
2022-11-15T05:51:32.592Z,49.07
2022-11-15T05:54:04.106Z,49.40
2022-11-15T05:56:32.970Z,50.20
2022-11-15T05:59:02.046Z,49.38
2022-11-15T06:01:31.019Z,43.20
2022-11-15T06:03:59.803Z,42.38
2022-11-15T06:06:30.210Z,41.60
2022-11-15T06:08:58.855Z,40.58
2022-11-15T06:11:29.021Z,39.60
2022-11-15T06:13:58.996Z,40.65
2022-11-15T06:16:27.580Z,39.03
2022-11-15T06:18:56.198Z,39.30
2022-11-15T06:21:25.291Z,39.10
2022-11-15T06:23:54.037Z,39.47
2022-11-15T06:26:23.001Z,38.43
2022-11-15T06:28:53.155Z,38.42
2022-11-15T06:31:21.946Z,38.22
2022-11-15T06:33:50.786Z,34.63
2022-11-15T06:36:20.096Z,34.08
2022-11-15T06:38:49.239Z,31.95
2022-11-15T06:41:18.843Z,32.58
2022-11-15T06:43:47.457Z,31.17
2022-11-15T06:46:17.456Z,30.58
2022-11-15T06:48:46.236Z,32.00
2022-11-15T06:51:14.865Z,30.35
2022-11-15T06:53:43.505Z,29.17
2022-11-15T06:56:12.179Z,30.55
2022-11-15T06:58:40.730Z,29.17
2022-11-15T07:01:12.053Z,30.23
2022-11-15T07:03:44.246Z,29.58
2022-11-15T07:06:13.301Z,28.98
2022-11-15T07:08:42.811Z,29.80
2022-11-15T07:11:11.902Z,31.33
2022-11-15T07:13:40.488Z,30.45
2022-11-15T07:16:12.165Z,30.38
2022-11-15T07:18:42.971Z,30.52
2022-11-15T07:21:13.743Z,28.40
2022-11-15T07:23:42.992Z,29.00
2022-11-15T07:26:11.889Z,29.15
2022-11-15T07:28:40.650Z,28.57
2022-11-15T07:31:11.117Z,26.92
2022-11-15T07:33:41.269Z,26.55
2022-11-15T07:36:11.509Z,28.50
2022-11-15T07:38:42.960Z,26.98
2022-11-15T07:41:12.472Z,28.10
2022-11-15T07:43:41.109Z,28.55
2022-11-15T07:46:11.339Z,28.67
2022-11-15T07:48:44.907Z,28.15
2022-11-15T07:51:15.971Z,28.42
2022-11-15T07:53:44.970Z,27.60
2022-11-15T07:56:14.309Z,29.33
2022-11-15T07:58:43.285Z,28.63
2022-11-15T08:01:13.626Z,27.80
2022-11-15T08:03:43.720Z,28.55
2022-11-15T08:06:12.366Z,28.40
2022-11-15T08:08:40.970Z,26.58
2022-11-15T08:11:09.558Z,26.88
2022-11-15T08:13:38.139Z,28.10
2022-11-15T08:16:12.661Z,27.48
2022-11-15T08:19:19.621Z,26.92
2022-11-15T08:22:51.486Z,28.10
2022-11-15T08:25:18.898Z,27.35
2022-11-15T08:27:49.757Z,26.75
2022-11-15T08:30:18.975Z,29.10
2022-11-15T08:32:47.740Z,27.27
2022-11-15T08:35:16.679Z,27.05
2022-11-15T08:37:46.846Z,26.05
2022-11-15T08:40:15.991Z,26.85
2022-11-15T08:42:47.473Z,28.45
2022-11-15T08:45:17.032Z,27.92
2022-11-15T08:47:49.724Z,27.50
2022-11-15T08:50:21.520Z,28.08
2022-11-15T08:52:52.205Z,28.27
2022-11-15T08:55:24.313Z,27.00
2022-11-15T08:57:55.640Z,27.42
2022-11-15T09:00:26.408Z,27.25
2022-11-15T09:02:55.130Z,27.92
2022-11-15T09:05:25.839Z,28.25
2022-11-15T09:07:59.155Z,28.33
2022-11-15T09:10:29.774Z,26.92
2022-11-15T09:12:59.843Z,27.30
2022-11-15T09:15:28.474Z,27.40
2022-11-15T09:18:00.484Z,25.83
2022-11-15T09:20:29.475Z,26.63
2022-11-15T09:23:03.752Z,28.83
2022-11-15T09:25:32.978Z,26.33
2022-11-15T09:28:08.580Z,27.08
2022-11-15T09:30:37.175Z,29.02
2022-11-15T09:33:10.280Z,27.15
2022-11-15T09:35:39.207Z,27.60
2022-11-15T09:38:09.352Z,27.20
2022-11-15T09:40:40.187Z,28.20
2022-11-15T09:43:30.319Z,36.67
2022-11-15T09:46:17.334Z,27.55
2022-11-15T09:48:54.762Z,27.75
2022-11-15T09:51:31.221Z,26.85
2022-11-15T09:54:46.083Z,28.55
2022-11-15T09:57:15.943Z,27.42
2022-11-15T10:00:44.710Z,27.25
2022-11-15T10:03:15.326Z,27.58
2022-11-15T10:05:46.810Z,29.02
2022-11-15T10:08:52.953Z,27.20
2022-11-15T10:11:42.263Z,28.67
2022-11-15T10:14:16.093Z,29.95
2022-11-15T10:17:23.725Z,28.08
2022-11-15T10:20:15.174Z,28.98
2022-11-15T10:22:49.482Z,28.63
2022-11-15T10:25:23.434Z,28.02
2022-11-15T10:28:08.813Z,26.77
2022-11-15T10:30:40.971Z,31.80
2022-11-15T10:33:34.853Z,29.42
2022-11-15T10:36:26.743Z,31.10
2022-11-15T10:39:00.146Z,30.58
2022-11-15T10:41:43.150Z,30.40
2022-11-15T10:44:27.212Z,29.48
2022-11-15T10:47:24.544Z,28.60
2022-11-15T10:50:01.523Z,29.65
2022-11-15T10:52:33.722Z,29.83
2022-11-15T10:55:15.194Z,29.05
2022-11-15T10:57:53.633Z,31.25
2022-11-15T11:00:48.531Z,29.30
2022-11-15T11:03:32.319Z,29.92
2022-11-15T11:06:11.393Z,29.98
2022-11-15T11:08:40.626Z,30.25
2022-11-15T11:11:10.098Z,31.20
2022-11-15T11:13:41.286Z,29.58
2022-11-15T11:16:43.938Z,31.42
2022-11-15T11:19:41.414Z,32.38
2022-11-15T11:22:24.928Z,32.08
2022-11-15T11:25:13.732Z,30.25
2022-11-15T11:28:01.517Z,31.38
2022-11-15T11:30:49.100Z,30.83
2022-11-15T11:33:29.194Z,31.77
2022-11-15T11:36:13.946Z,32.05
2022-11-15T11:39:21.511Z,37.65
2022-11-15T11:42:06.025Z,38.85
2022-11-15T11:44:58.238Z,33.30
2022-11-15T11:47:34.793Z,35.30
2022-11-15T11:50:17.666Z,34.22
2022-11-15T11:53:04.554Z,34.80
2022-11-15T11:55:39.790Z,32.55
2022-11-15T11:58:18.238Z,33.00
2022-11-15T12:00:54.349Z,33.45
2022-11-15T12:03:32.314Z,33.75
2022-11-15T12:06:07.513Z,33.75
2022-11-15T12:08:48.399Z,33.55
2022-11-15T12:11:23.539Z,34.03
2022-11-15T12:14:00.518Z,33.38
2022-11-15T12:16:32.173Z,34.47
2022-11-15T12:19:05.841Z,34.80
2022-11-15T12:21:47.514Z,34.67
2022-11-15T12:24:22.856Z,36.35
2022-11-15T12:27:00.252Z,36.30
2022-11-15T12:29:49.625Z,35.28
2022-11-15T12:32:29.356Z,35.42
2022-11-15T12:35:00.041Z,38.00
2022-11-15T12:37:52.747Z,35.30
2022-11-15T12:40:37.105Z,36.83
2022-11-15T12:43:42.040Z,38.42
2022-11-15T12:46:21.981Z,37.53
2022-11-15T12:48:55.638Z,38.55
2022-11-15T12:52:07.431Z,38.60
2022-11-15T12:55:00.255Z,37.30
2022-11-15T12:57:41.729Z,35.92
2022-11-15T13:00:48.085Z,33.03
2022-11-15T13:03:30.017Z,34.92
2022-11-15T13:06:10.052Z,36.60
2022-11-15T13:08:51.754Z,36.15
2022-11-15T13:11:52.741Z,33.85
2022-11-15T13:15:00.683Z,35.85
2022-11-15T13:17:41.293Z,35.13
2022-11-15T13:20:34.946Z,33.75
2022-11-15T13:23:17.083Z,33.15
2022-11-15T13:26:17.624Z,35.30
2022-11-15T13:28:52.924Z,35.17
2022-11-15T13:31:36.971Z,33.47
2022-11-15T13:34:50.017Z,34.10
2022-11-15T13:37:32.217Z,35.83
2022-11-15T13:40:23.172Z,33.50
2022-11-15T13:42:51.982Z,34.28
2022-11-15T13:45:22.677Z,34.10
2022-11-15T13:47:57.881Z,33.78
2022-11-15T13:50:35.534Z,34.33
2022-11-15T13:53:06.772Z,35.28
2022-11-15T13:55:35.990Z,34.15
2022-11-15T13:58:07.920Z,35.20
2022-11-15T14:00:45.536Z,35.20
2022-11-15T14:03:29.744Z,34.33
2022-11-15T14:06:13.191Z,35.60
2022-11-15T14:08:43.116Z,35.63
2022-11-15T14:11:21.478Z,35.15
2022-11-15T14:14:15.114Z,35.60
2022-11-15T14:16:47.868Z,35.65
2022-11-15T14:19:41.429Z,33.88
2022-11-15T14:22:22.971Z,34.85
2022-11-15T14:25:21.768Z,34.90
2022-11-15T14:28:18.530Z,32.85
2022-11-15T14:30:57.754Z,33.78
2022-11-15T14:33:56.372Z,33.70
2022-11-15T14:36:27.074Z,31.77
2022-11-15T14:38:56.349Z,33.90
2022-11-15T14:41:31.648Z,32.65
2022-11-15T14:44:01.393Z,32.90
2022-11-15T14:46:30.241Z,33.10
2022-11-15T14:49:00.731Z,35.90
2022-11-15T14:51:35.851Z,32.38
2022-11-15T14:54:04.536Z,40.65
2022-11-15T14:56:33.124Z,39.70
2022-11-15T14:59:01.773Z,31.58
2022-11-15T15:01:30.431Z,30.65
2022-11-15T15:04:00.656Z,31.40
2022-11-15T15:06:30.293Z,32.05
2022-11-15T15:08:59.245Z,31.70
2022-11-15T15:11:33.216Z,38.58
2022-11-15T15:14:27.803Z,39.95
2022-11-15T15:17:01.649Z,41.75
2022-11-15T15:19:33.969Z,40.47
2022-11-15T15:22:02.801Z,40.33
2022-11-15T15:24:37.430Z,40.25
2022-11-15T15:27:06.198Z,37.00
2022-11-15T15:29:34.871Z,40.70
2022-11-15T15:32:03.865Z,48.85
2022-11-15T15:34:34.025Z,42.95
2022-11-15T15:37:25.380Z,37.17
2022-11-15T15:39:55.490Z,31.02
2022-11-15T15:42:25.421Z,29.30
2022-11-15T15:44:54.325Z,31.15
2022-11-15T15:47:25.316Z,30.85
2022-11-15T15:49:55.615Z,29.58
2022-11-15T15:52:24.442Z,29.48
2022-11-15T15:54:55.030Z,31.02
2022-11-15T15:57:23.974Z,33.50
2022-11-15T15:59:55.272Z,33.20
2022-11-15T16:02:24.082Z,33.08
2022-11-15T16:04:54.499Z,32.92
2022-11-15T16:07:25.670Z,30.63
2022-11-15T16:10:05.009Z,30.77
2022-11-15T16:12:36.734Z,29.50
2022-11-15T16:15:06.494Z,34.78
2022-11-15T16:17:42.144Z,31.60
2022-11-15T16:20:32.222Z,31.75
2022-11-15T16:23:07.569Z,31.45
2022-11-15T16:25:43.318Z,31.20
2022-11-15T16:28:23.315Z,31.85
2022-11-15T16:31:02.070Z,34.03
2022-11-15T16:33:31.262Z,33.58
2022-11-15T16:36:02.232Z,34.53
2022-11-15T16:38:32.441Z,34.47
2022-11-15T16:41:01.795Z,34.20
2022-11-15T16:43:30.615Z,32.83
2022-11-15T16:45:59.463Z,34.25
2022-11-15T16:48:32.208Z,34.67
2022-11-15T16:51:10.765Z,34.83
2022-11-15T16:53:39.759Z,35.40
2022-11-15T16:56:24.023Z,37.50
2022-11-15T16:58:53.215Z,38.90
2022-11-15T17:01:26.171Z,36.47
2022-11-15T17:03:55.807Z,37.75
2022-11-15T17:06:28.635Z,50.35
2022-11-15T17:08:57.536Z,57.40
2022-11-15T17:11:26.334Z,40.88
2022-11-15T17:14:00.185Z,40.17
2022-11-15T17:16:28.978Z,41.17
2022-11-15T17:18:57.808Z,38.97
2022-11-15T17:21:32.561Z,37.85
2022-11-15T17:24:05.621Z,38.28
2022-11-15T17:28:23.342Z,40.47
2022-11-15T17:30:58.636Z,39.67
2022-11-15T17:33:28.306Z,40.78
2022-11-15T17:35:58.604Z,41.22
2022-11-15T17:38:29.991Z,41.75
2022-11-15T17:41:04.216Z,41.35
2022-11-15T17:43:35.243Z,39.97
2022-11-15T17:47:06.072Z,40.88
2022-11-15T17:50:19.337Z,41.10
2022-11-15T17:57:24.262Z,41.42
2022-11-15T18:05:36.232Z,42.03
2022-11-15T18:16:37.000Z,48.67
2022-11-15T18:19:48.198Z,50.83
2022-11-15T18:22:50.164Z,49.83
2022-11-15T18:29:32.965Z,53.53
2022-11-15T18:32:32.269Z,52.55
2022-11-15T18:35:01.447Z,51.80
2022-11-15T18:37:53.726Z,51.80
2022-11-15T18:40:22.583Z,49.13
2022-11-15T18:42:55.122Z,51.03
2022-11-15T18:45:25.416Z,49.42
2022-11-15T18:47:54.185Z,52.72
2022-11-15T18:50:22.919Z,53.97
2022-11-15T18:52:51.527Z,52.47
2022-11-15T18:55:20.222Z,57.08
2022-11-15T18:57:48.843Z,55.50
2022-11-15T19:00:19.419Z,54.90
2022-11-15T19:02:49.452Z,53.63
2022-11-15T19:05:21.484Z,55.15
2022-11-15T19:07:50.576Z,52.55
2022-11-15T19:10:19.408Z,54.72
2022-11-15T19:12:49.459Z,54.78
2022-11-15T19:15:18.319Z,55.28
2022-11-15T19:17:50.161Z,56.88
2022-11-15T19:20:42.024Z,66.63
2022-11-15T19:23:10.631Z,59.50
2022-11-15T19:25:39.381Z,65.15
2022-11-15T19:28:07.970Z,59.03
2022-11-15T19:30:36.588Z,70.07
2022-11-15T19:33:06.632Z,58.25
2022-11-15T19:35:35.344Z,57.83
2022-11-15T19:38:04.107Z,53.88
2022-11-15T19:40:34.538Z,54.65
2022-11-15T19:43:03.327Z,53.10
2022-11-15T19:45:32.203Z,53.63
2022-11-15T19:48:00.943Z,54.20
2022-11-15T19:50:31.330Z,64.78
2022-11-15T19:53:00.580Z,76.90
2022-11-15T19:55:29.454Z,66.93
2022-11-15T19:57:58.249Z,67.22
2022-11-15T20:00:27.093Z,63.15
2022-11-15T20:02:55.989Z,60.75
2022-11-15T20:05:24.706Z,56.95
2022-11-15T20:07:55.099Z,49.83
2022-11-15T20:10:23.882Z,55.05
2022-11-15T20:12:57.920Z,59.85
2022-11-15T20:15:29.275Z,57.08
2022-11-15T20:18:03.476Z,56.92
2022-11-15T20:20:35.923Z,53.67
2022-11-15T20:23:06.164Z,52.50
2022-11-15T20:25:41.837Z,46.50
2022-11-15T20:28:19.542Z,46.42
2022-11-15T20:30:49.941Z,49.45
2022-11-15T20:33:18.839Z,51.50
2022-11-15T20:35:48.551Z,47.63
2022-11-15T20:38:24.815Z,49.35
2022-11-15T20:40:59.876Z,51.00
2022-11-15T20:43:37.537Z,60.20
2022-11-15T20:46:11.015Z,56.50
2022-11-15T20:48:40.142Z,61.47
2022-11-15T20:51:13.246Z,59.60
2022-11-15T20:53:44.299Z,57.65
2022-11-15T20:56:15.925Z,54.70
2022-11-15T20:58:45.929Z,51.42
2022-11-15T21:01:17.865Z,51.42
2022-11-15T21:03:46.731Z,58.20
2022-11-15T21:06:15.465Z,64.00
2022-11-15T21:09:03.117Z,64.80
2022-11-15T21:11:49.299Z,63.83
2022-11-15T21:14:18.050Z,60.72
2022-11-15T21:16:46.816Z,67.25
2022-11-15T21:19:15.515Z,53.53
2022-11-15T21:21:44.247Z,55.33
2022-11-15T21:24:14.683Z,52.20
2022-11-15T21:26:43.465Z,49.17
2022-11-15T21:29:22.700Z,48.13
2022-11-15T21:31:53.458Z,49.28
2022-11-15T21:34:22.570Z,51.85
2022-11-15T21:36:51.174Z,51.35
2022-11-15T21:39:21.177Z,53.08
2022-11-15T21:41:50.076Z,53.90
2022-11-15T21:44:18.771Z,51.35
2022-11-15T21:46:47.534Z,53.88
2022-11-15T21:49:16.466Z,53.10
2022-11-15T21:51:45.386Z,52.28
2022-11-15T21:54:14.506Z,50.08
2022-11-15T21:56:44.648Z,53.53
2022-11-15T21:59:13.307Z,52.85
2022-11-15T22:01:59.035Z,52.78
2022-11-15T22:04:27.717Z,52.70
2022-11-15T22:06:56.418Z,51.90
2022-11-15T22:09:25.152Z,52.00
2022-11-15T22:11:55.203Z,51.90
2022-11-15T22:14:23.835Z,51.22
2022-11-15T22:16:52.444Z,51.80
2022-11-15T22:19:21.290Z,51.38
2022-11-15T22:21:49.854Z,54.58
2022-11-15T22:24:18.769Z,55.92
2022-11-15T22:26:47.407Z,55.78
2022-11-15T22:29:17.471Z,55.95
2022-11-15T22:31:46.207Z,55.13
2022-11-15T22:34:15.002Z,53.83
2022-11-15T22:37:13.163Z,55.58
2022-11-15T22:39:34.519Z,55.67
2022-11-15T22:42:03.089Z,55.63
2022-11-15T22:44:33.130Z,60.20
2022-11-15T22:47:01.661Z,57.90
2022-11-15T22:49:30.210Z,74.35
2022-11-15T22:51:58.814Z,60.58
2022-11-15T22:54:27.368Z,58.65
2022-11-15T22:56:56.843Z,57.47
2022-11-15T22:59:25.433Z,57.83
2022-11-15T23:01:55.416Z,57.33
2022-11-15T23:04:24.221Z,57.88
2022-11-15T23:06:52.791Z,57.88
2022-11-15T23:09:21.433Z,54.70
2022-11-15T23:12:21.920Z,52.00
2022-11-15T23:14:50.628Z,51.20
2022-11-15T23:17:20.545Z,53.35
2022-11-15T23:19:49.349Z,51.80
2022-11-15T23:22:35.638Z,49.10
2022-11-15T23:25:04.802Z,49.72
2022-11-15T23:27:33.387Z,48.30
2022-11-15T23:30:19.226Z,49.45
2022-11-15T23:33:06.603Z,49.88
2022-11-15T23:35:35.545Z,50.58
2022-11-15T23:38:04.160Z,46.92
2022-11-15T23:40:32.805Z,47.72
2022-11-15T23:43:01.384Z,46.63
2022-11-15T23:45:30.311Z,46.95
2022-11-15T23:48:01.698Z,45.72
2022-11-15T23:50:32.736Z,48.28
2022-11-15T23:53:01.341Z,50.53
2022-11-15T23:55:30.078Z,48.10
2022-11-15T23:57:59.602Z,54.63
